sensor_id;sensor_type;location;lat;lon;timestamp;temperature;humidity
17619;DHT22;8928;51.678;6.074;2023-09-08T00:00:19;16.50;99.90
17619;DHT22;8928;51.678;6.074;2023-09-08T00:03:07;16.40;99.90
17619;DHT22;8928;51.678;6.074;2023-09-08T00:05:54;16.50;99.90
17619;DHT22;8928;51.678;6.074;2023-09-08T00:08:41;16.40;99.90
17619;DHT22;8928;51.678;6.074;2023-09-08T00:11:29;16.40;99.90
17619;DHT22;8928;51.678;6.074;2023-09-08T00:14:17;16.40;99.90
17619;DHT22;8928;51.678;6.074;2023-09-08T00:17:04;16.40;99.90
17619;DHT22;8928;51.678;6.074;2023-09-08T00:19:52;16.40;99.90
17619;DHT22;8928;51.678;6.074;2023-09-08T00:25:08;16.30;99.90
17619;DHT22;8928;51.678;6.074;2023-09-08T00:27:55;16.20;99.90
17619;DHT22;8928;51.678;6.074;2023-09-08T00:30:42;16.20;99.90
17619;DHT22;8928;51.678;6.074;2023-09-08T00:33:29;16.10;99.90
17619;DHT22;8928;51.678;6.074;2023-09-08T00:36:18;16.10;99.90
17619;DHT22;8928;51.678;6.074;2023-09-08T00:39:05;16.10;99.90
17619;DHT22;8928;51.678;6.074;2023-09-08T00:41:52;16.20;99.90
17619;DHT22;8928;51.678;6.074;2023-09-08T00:44:39;16.20;99.90
17619;DHT22;8928;51.678;6.074;2023-09-08T00:47:26;16.10;99.90
17619;DHT22;8928;51.678;6.074;2023-09-08T00:50:13;16.10;99.90
17619;DHT22;8928;51.678;6.074;2023-09-08T00:53:02;16.10;99.90
17619;DHT22;8928;51.678;6.074;2023-09-08T00:55:50;16.10;99.90
17619;DHT22;8928;51.678;6.074;2023-09-08T00:58:38;16.10;99.90
17619;DHT22;8928;51.678;6.074;2023-09-08T01:01:25;16.10;99.90
17619;DHT22;8928;51.678;6.074;2023-09-08T01:04:12;16.10;99.90
17619;DHT22;8928;51.678;6.074;2023-09-08T01:06:59;16.10;99.90
17619;DHT22;8928;51.678;6.074;2023-09-08T01:09:49;16.10;99.90
17619;DHT22;8928;51.678;6.074;2023-09-08T01:12:36;16.00;99.90
17619;DHT22;8928;51.678;6.074;2023-09-08T01:15:23;16.00;99.90
17619;DHT22;8928;51.678;6.074;2023-09-08T01:18:11;16.00;99.90
17619;DHT22;8928;51.678;6.074;2023-09-08T01:21:13;16.10;99.90
17619;DHT22;8928;51.678;6.074;2023-09-08T01:24:21;16.00;99.90
17619;DHT22;8928;51.678;6.074;2023-09-08T01:27:18;16.00;99.90
17619;DHT22;8928;51.678;6.074;2023-09-08T01:30:07;15.90;99.90
17619;DHT22;8928;51.678;6.074;2023-09-08T01:32:55;15.80;99.90
17619;DHT22;8928;51.678;6.074;2023-09-08T01:35:43;15.80;99.90
17619;DHT22;8928;51.678;6.074;2023-09-08T01:38:30;15.80;99.90
17619;DHT22;8928;51.678;6.074;2023-09-08T01:41:17;15.80;99.90
17619;DHT22;8928;51.678;6.074;2023-09-08T01:44:06;15.70;99.90
17619;DHT22;8928;51.678;6.074;2023-09-08T01:46:56;15.70;99.90
17619;DHT22;8928;51.678;6.074;2023-09-08T01:49:43;15.60;99.90
17619;DHT22;8928;51.678;6.074;2023-09-08T01:52:31;15.60;99.90
17619;DHT22;8928;51.678;6.074;2023-09-08T01:55:18;15.60;99.90
17619;DHT22;8928;51.678;6.074;2023-09-08T01:58:06;15.60;99.90
17619;DHT22;8928;51.678;6.074;2023-09-08T02:00:54;15.50;99.90
17619;DHT22;8928;51.678;6.074;2023-09-08T02:03:45;15.50;99.90
17619;DHT22;8928;51.678;6.074;2023-09-08T02:06:32;15.50;99.90
17619;DHT22;8928;51.678;6.074;2023-09-08T02:09:20;15.50;99.90
17619;DHT22;8928;51.678;6.074;2023-09-08T02:12:07;15.40;99.90
17619;DHT22;8928;51.678;6.074;2023-09-08T02:14:54;15.40;99.90
17619;DHT22;8928;51.678;6.074;2023-09-08T02:17:42;15.40;99.90
17619;DHT22;8928;51.678;6.074;2023-09-08T02:20:29;15.40;99.90
17619;DHT22;8928;51.678;6.074;2023-09-08T02:23:16;15.40;99.90
17619;DHT22;8928;51.678;6.074;2023-09-08T02:26:03;15.40;99.90
17619;DHT22;8928;51.678;6.074;2023-09-08T02:28:50;15.40;99.90
17619;DHT22;8928;51.678;6.074;2023-09-08T02:31:37;15.30;99.90
17619;DHT22;8928;51.678;6.074;2023-09-08T02:34:26;15.30;99.90
17619;DHT22;8928;51.678;6.074;2023-09-08T02:37:13;15.30;99.90
17619;DHT22;8928;51.678;6.074;2023-09-08T02:40:01;15.30;99.90
17619;DHT22;8928;51.678;6.074;2023-09-08T02:42:49;15.20;99.90
17619;DHT22;8928;51.678;6.074;2023-09-08T02:45:36;15.20;99.90
17619;DHT22;8928;51.678;6.074;2023-09-08T02:48:24;15.10;99.90
17619;DHT22;8928;51.678;6.074;2023-09-08T02:51:12;15.10;99.90
17619;DHT22;8928;51.678;6.074;2023-09-08T02:53:59;15.10;99.90
17619;DHT22;8928;51.678;6.074;2023-09-08T02:56:46;15.00;99.90
17619;DHT22;8928;51.678;6.074;2023-09-08T02:59:33;15.10;99.90
17619;DHT22;8928;51.678;6.074;2023-09-08T03:02:20;15.00;99.90
17619;DHT22;8928;51.678;6.074;2023-09-08T03:05:08;15.00;99.90
17619;DHT22;8928;51.678;6.074;2023-09-08T03:07:56;15.00;99.90
17619;DHT22;8928;51.678;6.074;2023-09-08T03:10:43;14.90;99.90
17619;DHT22;8928;51.678;6.074;2023-09-08T03:13:30;14.90;99.90
17619;DHT22;8928;51.678;6.074;2023-09-08T03:16:17;14.90;99.90
17619;DHT22;8928;51.678;6.074;2023-09-08T03:19:04;14.90;99.90
17619;DHT22;8928;51.678;6.074;2023-09-08T03:21:51;14.90;99.90
17619;DHT22;8928;51.678;6.074;2023-09-08T03:24:40;15.00;99.90
17619;DHT22;8928;51.678;6.074;2023-09-08T03:27:27;14.90;99.90
17619;DHT22;8928;51.678;6.074;2023-09-08T03:30:14;14.90;99.90
17619;DHT22;8928;51.678;6.074;2023-09-08T03:33:01;14.90;99.90
17619;DHT22;8928;51.678;6.074;2023-09-08T03:35:48;14.90;99.90
17619;DHT22;8928;51.678;6.074;2023-09-08T03:38:35;14.90;99.90
17619;DHT22;8928;51.678;6.074;2023-09-08T03:41:25;14.80;99.90
17619;DHT22;8928;51.678;6.074;2023-09-08T03:44:12;14.80;99.90
17619;DHT22;8928;51.678;6.074;2023-09-08T03:46:59;14.70;99.90
17619;DHT22;8928;51.678;6.074;2023-09-08T03:49:46;14.70;99.90
17619;DHT22;8928;51.678;6.074;2023-09-08T03:52:33;14.70;99.90
17619;DHT22;8928;51.678;6.074;2023-09-08T03:55:20;14.70;99.90
17619;DHT22;8928;51.678;6.074;2023-09-08T03:58:08;14.70;99.90
17619;DHT22;8928;51.678;6.074;2023-09-08T04:00:55;14.70;99.90
17619;DHT22;8928;51.678;6.074;2023-09-08T04:03:42;14.70;99.90
17619;DHT22;8928;51.678;6.074;2023-09-08T04:06:30;14.70;99.90
17619;DHT22;8928;51.678;6.074;2023-09-08T04:09:17;14.60;99.90
17619;DHT22;8928;51.678;6.074;2023-09-08T04:12:05;14.60;99.90
17619;DHT22;8928;51.678;6.074;2023-09-08T04:14:56;14.60;99.90
17619;DHT22;8928;51.678;6.074;2023-09-08T04:17:43;14.60;99.90
17619;DHT22;8928;51.678;6.074;2023-09-08T04:20:30;14.60;99.90
17619;DHT22;8928;51.678;6.074;2023-09-08T04:23:17;14.60;99.90
17619;DHT22;8928;51.678;6.074;2023-09-08T04:26:04;14.60;99.90
17619;DHT22;8928;51.678;6.074;2023-09-08T04:28:51;14.60;99.90
17619;DHT22;8928;51.678;6.074;2023-09-08T04:31:39;14.60;99.90
17619;DHT22;8928;51.678;6.074;2023-09-08T04:34:26;14.60;99.90
17619;DHT22;8928;51.678;6.074;2023-09-08T04:37:13;14.50;99.90
17619;DHT22;8928;51.678;6.074;2023-09-08T04:40:01;14.50;99.90
17619;DHT22;8928;51.678;6.074;2023-09-08T04:42:48;14.50;99.90
17619;DHT22;8928;51.678;6.074;2023-09-08T04:45:35;14.60;99.90
17619;DHT22;8928;51.678;6.074;2023-09-08T04:48:23;14.60;99.90
17619;DHT22;8928;51.678;6.074;2023-09-08T04:51:11;14.60;99.90
17619;DHT22;8928;51.678;6.074;2023-09-08T04:53:58;14.60;99.90
17619;DHT22;8928;51.678;6.074;2023-09-08T04:56:45;14.60;99.90
17619;DHT22;8928;51.678;6.074;2023-09-08T04:59:32;14.50;99.90
17619;DHT22;8928;51.678;6.074;2023-09-08T05:02:19;14.60;99.90
17619;DHT22;8928;51.678;6.074;2023-09-08T05:05:08;14.60;99.90
17619;DHT22;8928;51.678;6.074;2023-09-08T05:07:55;14.60;99.90
17619;DHT22;8928;51.678;6.074;2023-09-08T05:10:43;14.50;99.90
17619;DHT22;8928;51.678;6.074;2023-09-08T05:13:31;14.50;99.90
17619;DHT22;8928;51.678;6.074;2023-09-08T05:16:18;14.60;99.90
17619;DHT22;8928;51.678;6.074;2023-09-08T05:19:12;14.50;99.90
17619;DHT22;8928;51.678;6.074;2023-09-08T05:22:00;14.60;99.90
17619;DHT22;8928;51.678;6.074;2023-09-08T05:24:47;14.60;99.90
17619;DHT22;8928;51.678;6.074;2023-09-08T05:27:35;14.60;99.90
17619;DHT22;8928;51.678;6.074;2023-09-08T05:30:22;14.80;99.90
17619;DHT22;8928;51.678;6.074;2023-09-08T05:33:09;14.80;99.90
17619;DHT22;8928;51.678;6.074;2023-09-08T05:35:56;14.90;99.90
17619;DHT22;8928;51.678;6.074;2023-09-08T05:38:44;14.90;99.90
17619;DHT22;8928;51.678;6.074;2023-09-08T05:41:31;14.90;99.90
17619;DHT22;8928;51.678;6.074;2023-09-08T05:44:20;15.00;99.90
17619;DHT22;8928;51.678;6.074;2023-09-08T05:47:07;15.00;99.90
17619;DHT22;8928;51.678;6.074;2023-09-08T05:49:54;15.00;99.90
17619;DHT22;8928;51.678;6.074;2023-09-08T05:52:41;15.10;99.90
17619;DHT22;8928;51.678;6.074;2023-09-08T05:55:29;15.20;99.90
17619;DHT22;8928;51.678;6.074;2023-09-08T05:58:16;15.30;99.90
17619;DHT22;8928;51.678;6.074;2023-09-08T06:01:04;15.40;99.90
17619;DHT22;8928;51.678;6.074;2023-09-08T06:03:51;15.50;99.90
17619;DHT22;8928;51.678;6.074;2023-09-08T06:06:38;15.60;99.90
17619;DHT22;8928;51.678;6.074;2023-09-08T06:09:25;15.70;99.90
17619;DHT22;8928;51.678;6.074;2023-09-08T06:12:12;15.80;99.90
17619;DHT22;8928;51.678;6.074;2023-09-08T06:15:00;16.00;99.90
17619;DHT22;8928;51.678;6.074;2023-09-08T06:17:48;16.10;99.90
17619;DHT22;8928;51.678;6.074;2023-09-08T06:20:35;16.30;99.90
17619;DHT22;8928;51.678;6.074;2023-09-08T06:23:23;16.40;99.90
17619;DHT22;8928;51.678;6.074;2023-09-08T06:26:10;16.60;99.90
17619;DHT22;8928;51.678;6.074;2023-09-08T06:28:58;16.70;99.90
17619;DHT22;8928;51.678;6.074;2023-09-08T06:31:45;16.90;99.90
17619;DHT22;8928;51.678;6.074;2023-09-08T06:34:32;16.90;99.90
17619;DHT22;8928;51.678;6.074;2023-09-08T06:37:21;17.00;99.90
17619;DHT22;8928;51.678;6.074;2023-09-08T06:40:08;17.20;99.90
17619;DHT22;8928;51.678;6.074;2023-09-08T06:42:55;17.30;99.90
17619;DHT22;8928;51.678;6.074;2023-09-08T06:45:47;17.40;99.90
17619;DHT22;8928;51.678;6.074;2023-09-08T06:48:35;17.50;99.90
17619;DHT22;8928;51.678;6.074;2023-09-08T06:51:22;17.70;99.90
17619;DHT22;8928;51.678;6.074;2023-09-08T06:54:09;17.80;99.90
17619;DHT22;8928;51.678;6.074;2023-09-08T06:56:56;17.90;99.90
17619;DHT22;8928;51.678;6.074;2023-09-08T06:59:43;18.00;99.90
17619;DHT22;8928;51.678;6.074;2023-09-08T07:02:31;18.10;99.90
17619;DHT22;8928;51.678;6.074;2023-09-08T07:05:18;18.20;99.90
17619;DHT22;8928;51.678;6.074;2023-09-08T07:08:05;18.40;99.90
17619;DHT22;8928;51.678;6.074;2023-09-08T07:10:53;18.50;99.90
17619;DHT22;8928;51.678;6.074;2023-09-08T07:13:40;18.60;99.90
17619;DHT22;8928;51.678;6.074;2023-09-08T07:16:27;18.70;99.90
17619;DHT22;8928;51.678;6.074;2023-09-08T07:19:15;18.80;99.90
17619;DHT22;8928;51.678;6.074;2023-09-08T07:22:02;19.00;99.90
17619;DHT22;8928;51.678;6.074;2023-09-08T07:24:50;19.10;99.90
17619;DHT22;8928;51.678;6.074;2023-09-08T07:27:37;19.20;99.90
17619;DHT22;8928;51.678;6.074;2023-09-08T07:30:24;19.30;99.90
17619;DHT22;8928;51.678;6.074;2023-09-08T07:33:12;19.50;99.90
17619;DHT22;8928;51.678;6.074;2023-09-08T07:36:04;19.70;99.90
17619;DHT22;8928;51.678;6.074;2023-09-08T07:38:52;19.80;99.90
17619;DHT22;8928;51.678;6.074;2023-09-08T07:41:39;20.00;99.90
17619;DHT22;8928;51.678;6.074;2023-09-08T07:44:26;20.10;99.90
17619;DHT22;8928;51.678;6.074;2023-09-08T07:47:13;20.30;99.90
17619;DHT22;8928;51.678;6.074;2023-09-08T07:50:18;20.40;99.90
17619;DHT22;8928;51.678;6.074;2023-09-08T07:53:08;20.60;99.90
17619;DHT22;8928;51.678;6.074;2023-09-08T07:55:55;20.80;99.90
17619;DHT22;8928;51.678;6.074;2023-09-08T07:58:42;20.80;99.90
17619;DHT22;8928;51.678;6.074;2023-09-08T08:01:29;21.00;99.90
17619;DHT22;8928;51.678;6.074;2023-09-08T08:04:16;21.20;99.90
17619;DHT22;8928;51.678;6.074;2023-09-08T08:07:03;21.30;99.90
17619;DHT22;8928;51.678;6.074;2023-09-08T08:09:51;21.50;99.90
17619;DHT22;8928;51.678;6.074;2023-09-08T08:12:40;21.60;99.90
17619;DHT22;8928;51.678;6.074;2023-09-08T08:15:35;21.70;99.90
17619;DHT22;8928;51.678;6.074;2023-09-08T08:18:23;21.90;99.90
17619;DHT22;8928;51.678;6.074;2023-09-08T08:21:10;22.00;99.90
17619;DHT22;8928;51.678;6.074;2023-09-08T08:23:57;22.10;99.90
17619;DHT22;8928;51.678;6.074;2023-09-08T08:26:45;22.20;99.90
17619;DHT22;8928;51.678;6.074;2023-09-08T08:29:32;22.30;99.90
17619;DHT22;8928;51.678;6.074;2023-09-08T08:32:19;22.50;99.90
17619;DHT22;8928;51.678;6.074;2023-09-08T08:35:06;22.60;99.90
17619;DHT22;8928;51.678;6.074;2023-09-08T08:37:54;22.70;99.90
17619;DHT22;8928;51.678;6.074;2023-09-08T08:40:41;22.80;99.90
17619;DHT22;8928;51.678;6.074;2023-09-08T08:43:31;23.00;99.90
17619;DHT22;8928;51.678;6.074;2023-09-08T08:46:18;23.10;99.90
17619;DHT22;8928;51.678;6.074;2023-09-08T08:49:09;23.30;99.90
17619;DHT22;8928;51.678;6.074;2023-09-08T08:51:58;23.50;99.90
17619;DHT22;8928;51.678;6.074;2023-09-08T08:54:46;23.60;99.90
17619;DHT22;8928;51.678;6.074;2023-09-08T08:57:33;23.70;99.90
17619;DHT22;8928;51.678;6.074;2023-09-08T09:00:22;23.90;99.90
17619;DHT22;8928;51.678;6.074;2023-09-08T09:03:09;24.00;99.90
17619;DHT22;8928;51.678;6.074;2023-09-08T09:05:56;24.20;99.90
17619;DHT22;8928;51.678;6.074;2023-09-08T09:08:45;24.30;99.90
17619;DHT22;8928;51.678;6.074;2023-09-08T09:11:32;24.40;99.90
17619;DHT22;8928;51.678;6.074;2023-09-08T09:14:19;24.60;99.90
17619;DHT22;8928;51.678;6.074;2023-09-08T09:17:13;24.80;99.90
17619;DHT22;8928;51.678;6.074;2023-09-08T09:20:13;24.90;99.90
17619;DHT22;8928;51.678;6.074;2023-09-08T09:23:03;25.10;99.90
17619;DHT22;8928;51.678;6.074;2023-09-08T09:25:50;25.20;99.90
17619;DHT22;8928;51.678;6.074;2023-09-08T09:28:47;25.40;99.90
17619;DHT22;8928;51.678;6.074;2023-09-08T09:31:34;25.70;99.90
17619;DHT22;8928;51.678;6.074;2023-09-08T09:34:23;25.90;99.90
17619;DHT22;8928;51.678;6.074;2023-09-08T09:37:10;26.20;99.90
17619;DHT22;8928;51.678;6.074;2023-09-08T09:40:00;26.30;99.90
17619;DHT22;8928;51.678;6.074;2023-09-08T09:42:49;26.50;99.90
17619;DHT22;8928;51.678;6.074;2023-09-08T09:45:37;26.80;99.90
17619;DHT22;8928;51.678;6.074;2023-09-08T09:48:25;27.00;99.90
17619;DHT22;8928;51.678;6.074;2023-09-08T09:51:16;27.20;99.90
17619;DHT22;8928;51.678;6.074;2023-09-08T09:54:06;27.20;99.90
17619;DHT22;8928;51.678;6.074;2023-09-08T09:56:53;27.30;99.90
17619;DHT22;8928;51.678;6.074;2023-09-08T09:59:41;27.50;99.90
17619;DHT22;8928;51.678;6.074;2023-09-08T10:02:28;27.60;99.90
17619;DHT22;8928;51.678;6.074;2023-09-08T10:05:17;27.90;99.90
17619;DHT22;8928;51.678;6.074;2023-09-08T10:08:05;28.30;99.90
17619;DHT22;8928;51.678;6.074;2023-09-08T10:10:52;28.40;99.90
17619;DHT22;8928;51.678;6.074;2023-09-08T10:13:46;28.70;99.90
17619;DHT22;8928;51.678;6.074;2023-09-08T10:16:35;29.00;99.90
17619;DHT22;8928;51.678;6.074;2023-09-08T10:19:23;29.10;99.90
17619;DHT22;8928;51.678;6.074;2023-09-08T10:22:12;29.10;99.90
17619;DHT22;8928;51.678;6.074;2023-09-08T10:25:06;29.00;99.90
17619;DHT22;8928;51.678;6.074;2023-09-08T10:27:53;29.10;99.90
17619;DHT22;8928;51.678;6.074;2023-09-08T10:30:41;29.30;99.90
17619;DHT22;8928;51.678;6.074;2023-09-08T10:33:29;29.60;99.90
17619;DHT22;8928;51.678;6.074;2023-09-08T10:36:16;29.90;99.90
17619;DHT22;8928;51.678;6.074;2023-09-08T10:39:28;30.30;99.90
17619;DHT22;8928;51.678;6.074;2023-09-08T10:42:22;30.30;99.90
17619;DHT22;8928;51.678;6.074;2023-09-08T10:45:15;30.30;99.90
17619;DHT22;8928;51.678;6.074;2023-09-08T10:48:02;30.70;99.90
17619;DHT22;8928;51.678;6.074;2023-09-08T10:50:49;30.60;99.90
17619;DHT22;8928;51.678;6.074;2023-09-08T10:53:37;30.60;99.90
17619;DHT22;8928;51.678;6.074;2023-09-08T10:56:47;30.70;99.90
17619;DHT22;8928;51.678;6.074;2023-09-08T10:59:38;31.10;99.90
17619;DHT22;8928;51.678;6.074;2023-09-08T11:02:33;31.20;99.90
17619;DHT22;8928;51.678;6.074;2023-09-08T11:05:20;30.90;99.90
17619;DHT22;8928;51.678;6.074;2023-09-08T11:08:07;31.10;99.90
17619;DHT22;8928;51.678;6.074;2023-09-08T11:10:55;30.90;99.90
17619;DHT22;8928;51.678;6.074;2023-09-08T11:13:42;31.10;99.90
17619;DHT22;8928;51.678;6.074;2023-09-08T11:16:32;31.50;99.90
17619;DHT22;8928;51.678;6.074;2023-09-08T11:19:21;31.50;99.90
17619;DHT22;8928;51.678;6.074;2023-09-08T11:22:08;31.30;99.90
17619;DHT22;8928;51.678;6.074;2023-09-08T11:24:56;31.40;99.90
17619;DHT22;8928;51.678;6.074;2023-09-08T11:27:44;31.70;99.90
17619;DHT22;8928;51.678;6.074;2023-09-08T11:30:32;32.00;99.90
17619;DHT22;8928;51.678;6.074;2023-09-08T11:33:22;32.00;99.90
17619;DHT22;8928;51.678;6.074;2023-09-08T11:36:12;32.30;99.90
17619;DHT22;8928;51.678;6.074;2023-09-08T11:39:04;32.60;99.90
17619;DHT22;8928;51.678;6.074;2023-09-08T11:41:52;32.80;99.90
17619;DHT22;8928;51.678;6.074;2023-09-08T11:44:40;32.80;99.90
17619;DHT22;8928;51.678;6.074;2023-09-08T11:47:28;32.80;99.90
17619;DHT22;8928;51.678;6.074;2023-09-08T11:50:18;32.80;99.90
17619;DHT22;8928;51.678;6.074;2023-09-08T11:53:06;33.00;99.90
17619;DHT22;8928;51.678;6.074;2023-09-08T11:55:53;33.00;99.90
17619;DHT22;8928;51.678;6.074;2023-09-08T11:58:41;33.20;99.90
17619;DHT22;8928;51.678;6.074;2023-09-08T12:01:29;33.40;99.90
17619;DHT22;8928;51.678;6.074;2023-09-08T12:04:20;33.60;99.90
17619;DHT22;8928;51.678;6.074;2023-09-08T12:07:12;33.80;99.90
17619;DHT22;8928;51.678;6.074;2023-09-08T12:10:07;33.80;99.90
17619;DHT22;8928;51.678;6.074;2023-09-08T12:12:55;33.80;99.90
17619;DHT22;8928;51.678;6.074;2023-09-08T12:15:45;33.60;99.90
17619;DHT22;8928;51.678;6.074;2023-09-08T12:18:39;33.40;99.90
17619;DHT22;8928;51.678;6.074;2023-09-08T12:21:27;33.40;99.90
17619;DHT22;8928;51.678;6.074;2023-09-08T12:24:15;33.40;99.90
17619;DHT22;8928;51.678;6.074;2023-09-08T12:27:03;33.70;99.90
17619;DHT22;8928;51.678;6.074;2023-09-08T12:29:57;33.70;99.90
17619;DHT22;8928;51.678;6.074;2023-09-08T12:32:47;33.90;99.90
17619;DHT22;8928;51.678;6.074;2023-09-08T12:35:35;34.10;99.90
17619;DHT22;8928;51.678;6.074;2023-09-08T12:38:22;33.90;99.90
17619;DHT22;8928;51.678;6.074;2023-09-08T12:41:11;33.90;99.90
17619;DHT22;8928;51.678;6.074;2023-09-08T12:43:58;34.30;99.90
17619;DHT22;8928;51.678;6.074;2023-09-08T12:46:45;34.50;99.90
17619;DHT22;8928;51.678;6.074;2023-09-08T12:49:32;34.60;99.90
17619;DHT22;8928;51.678;6.074;2023-09-08T12:52:19;34.80;99.90
17619;DHT22;8928;51.678;6.074;2023-09-08T12:55:07;35.00;99.90
17619;DHT22;8928;51.678;6.074;2023-09-08T12:57:55;34.80;99.90
17619;DHT22;8928;51.678;6.074;2023-09-08T13:00:43;34.90;99.90
17619;DHT22;8928;51.678;6.074;2023-09-08T13:03:30;35.20;99.90
17619;DHT22;8928;51.678;6.074;2023-09-08T13:06:17;35.30;99.90
17619;DHT22;8928;51.678;6.074;2023-09-08T13:09:04;35.30;99.90
17619;DHT22;8928;51.678;6.074;2023-09-08T13:11:52;35.70;99.90
17619;DHT22;8928;51.678;6.074;2023-09-08T13:14:40;35.80;99.90
17619;DHT22;8928;51.678;6.074;2023-09-08T13:17:29;36.00;99.90
17619;DHT22;8928;51.678;6.074;2023-09-08T13:20:16;36.00;99.90
17619;DHT22;8928;51.678;6.074;2023-09-08T13:23:03;36.20;99.90
17619;DHT22;8928;51.678;6.074;2023-09-08T13:25:50;36.30;99.90
17619;DHT22;8928;51.678;6.074;2023-09-08T13:28:37;36.40;99.90
17619;DHT22;8928;51.678;6.074;2023-09-08T13:31:26;36.10;99.90
17619;DHT22;8928;51.678;6.074;2023-09-08T13:34:13;36.60;99.90
17619;DHT22;8928;51.678;6.074;2023-09-08T13:37:01;36.50;99.90
17619;DHT22;8928;51.678;6.074;2023-09-08T13:39:48;36.60;99.90
17619;DHT22;8928;51.678;6.074;2023-09-08T13:42:35;36.60;99.90
17619;DHT22;8928;51.678;6.074;2023-09-08T13:45:22;36.60;99.90
17619;DHT22;8928;51.678;6.074;2023-09-08T13:48:10;36.70;99.90
17619;DHT22;8928;51.678;6.074;2023-09-08T13:51:01;37.00;99.90
17619;DHT22;8928;51.678;6.074;2023-09-08T13:53:48;37.40;99.90
17619;DHT22;8928;51.678;6.074;2023-09-08T13:56:37;37.50;99.90
17619;DHT22;8928;51.678;6.074;2023-09-08T13:59:25;37.60;99.90
17619;DHT22;8928;51.678;6.074;2023-09-08T14:02:12;37.50;99.90
17619;DHT22;8928;51.678;6.074;2023-09-08T14:05:00;37.30;99.90
17619;DHT22;8928;51.678;6.074;2023-09-08T14:07:47;37.50;99.90
17619;DHT22;8928;51.678;6.074;2023-09-08T14:10:34;37.70;99.90
17619;DHT22;8928;51.678;6.074;2023-09-08T14:13:21;37.70;99.90
17619;DHT22;8928;51.678;6.074;2023-09-08T14:16:09;38.10;99.90
17619;DHT22;8928;51.678;6.074;2023-09-08T14:18:56;38.00;99.90
17619;DHT22;8928;51.678;6.074;2023-09-08T14:21:44;38.00;99.90
17619;DHT22;8928;51.678;6.074;2023-09-08T14:24:31;37.80;99.90
17619;DHT22;8928;51.678;6.074;2023-09-08T14:27:18;38.00;99.90
17619;DHT22;8928;51.678;6.074;2023-09-08T14:30:06;37.90;99.90
17619;DHT22;8928;51.678;6.074;2023-09-08T14:32:53;38.10;99.90
17619;DHT22;8928;51.678;6.074;2023-09-08T14:35:41;38.30;99.90
17619;DHT22;8928;51.678;6.074;2023-09-08T14:38:30;38.60;99.90
17619;DHT22;8928;51.678;6.074;2023-09-08T14:41:17;38.40;99.90
17619;DHT22;8928;51.678;6.074;2023-09-08T14:44:04;38.70;99.90
17619;DHT22;8928;51.678;6.074;2023-09-08T14:46:51;38.50;99.90
17619;DHT22;8928;51.678;6.074;2023-09-08T14:49:38;38.60;99.90
17619;DHT22;8928;51.678;6.074;2023-09-08T14:52:26;38.90;99.90
17619;DHT22;8928;51.678;6.074;2023-09-08T14:55:14;38.80;99.90
17619;DHT22;8928;51.678;6.074;2023-09-08T14:58:01;38.90;99.90
17619;DHT22;8928;51.678;6.074;2023-09-08T15:00:48;38.70;99.90
17619;DHT22;8928;51.678;6.074;2023-09-08T15:03:35;38.70;99.90
17619;DHT22;8928;51.678;6.074;2023-09-08T15:06:23;38.50;99.90
17619;DHT22;8928;51.678;6.074;2023-09-08T15:09:10;38.40;99.90
17619;DHT22;8928;51.678;6.074;2023-09-08T15:11:58;38.50;99.90
17619;DHT22;8928;51.678;6.074;2023-09-08T15:14:45;38.70;99.90
17619;DHT22;8928;51.678;6.074;2023-09-08T15:17:32;38.50;99.90
17619;DHT22;8928;51.678;6.074;2023-09-08T15:20:20;38.50;99.90
17619;DHT22;8928;51.678;6.074;2023-09-08T15:23:07;38.40;99.90
17619;DHT22;8928;51.678;6.074;2023-09-08T15:25:55;38.40;99.90
17619;DHT22;8928;51.678;6.074;2023-09-08T15:28:44;38.30;99.90
17619;DHT22;8928;51.678;6.074;2023-09-08T15:31:31;38.40;99.90
17619;DHT22;8928;51.678;6.074;2023-09-08T15:34:18;38.30;99.90
17619;DHT22;8928;51.678;6.074;2023-09-08T15:37:06;38.20;99.90
17619;DHT22;8928;51.678;6.074;2023-09-08T15:39:53;38.10;99.90
17619;DHT22;8928;51.678;6.074;2023-09-08T15:42:40;37.80;99.90
17619;DHT22;8928;51.678;6.074;2023-09-08T15:45:29;37.70;99.90
17619;DHT22;8928;51.678;6.074;2023-09-08T15:48:16;37.60;99.90
17619;DHT22;8928;51.678;6.074;2023-09-08T15:51:03;37.70;99.90
17619;DHT22;8928;51.678;6.074;2023-09-08T15:53:51;37.70;99.90
17619;DHT22;8928;51.678;6.074;2023-09-08T15:56:38;37.60;99.90
17619;DHT22;8928;51.678;6.074;2023-09-08T15:59:25;37.50;99.90
17619;DHT22;8928;51.678;6.074;2023-09-08T16:02:13;37.60;99.90
17619;DHT22;8928;51.678;6.074;2023-09-08T16:05:00;37.70;99.90
17619;DHT22;8928;51.678;6.074;2023-09-08T16:07:47;37.70;99.90
17619;DHT22;8928;51.678;6.074;2023-09-08T16:10:35;37.60;99.90
17619;DHT22;8928;51.678;6.074;2023-09-08T16:13:22;37.30;99.90
17619;DHT22;8928;51.678;6.074;2023-09-08T16:16:09;37.50;99.90
17619;DHT22;8928;51.678;6.074;2023-09-08T16:18:57;37.50;99.90
17619;DHT22;8928;51.678;6.074;2023-09-08T16:21:44;37.00;99.90
17619;DHT22;8928;51.678;6.074;2023-09-08T16:24:31;37.10;99.90
17619;DHT22;8928;51.678;6.074;2023-09-08T16:27:19;37.10;99.90
17619;DHT22;8928;51.678;6.074;2023-09-08T16:30:07;36.80;99.90
17619;DHT22;8928;51.678;6.074;2023-09-08T16:32:55;36.90;99.90
17619;DHT22;8928;51.678;6.074;2023-09-08T16:35:43;36.70;99.90
17619;DHT22;8928;51.678;6.074;2023-09-08T16:38:30;36.80;99.90
17619;DHT22;8928;51.678;6.074;2023-09-08T16:41:18;36.70;99.90
17619;DHT22;8928;51.678;6.074;2023-09-08T16:44:05;36.40;99.90
17619;DHT22;8928;51.678;6.074;2023-09-08T16:46:53;36.20;99.90
17619;DHT22;8928;51.678;6.074;2023-09-08T16:49:40;35.60;99.90
17619;DHT22;8928;51.678;6.074;2023-09-08T16:52:28;35.00;99.90
17619;DHT22;8928;51.678;6.074;2023-09-08T16:55:15;34.30;99.90
17619;DHT22;8928;51.678;6.074;2023-09-08T16:58:03;33.50;99.90
17619;DHT22;8928;51.678;6.074;2023-09-08T17:00:50;32.70;99.90
17619;DHT22;8928;51.678;6.074;2023-09-08T17:03:37;32.30;99.90
17619;DHT22;8928;51.678;6.074;2023-09-08T17:06:24;32.00;99.90
17619;DHT22;8928;51.678;6.074;2023-09-08T17:09:14;31.90;99.90
17619;DHT22;8928;51.678;6.074;2023-09-08T17:12:01;31.50;99.90
17619;DHT22;8928;51.678;6.074;2023-09-08T17:14:49;30.80;99.90
17619;DHT22;8928;51.678;6.074;2023-09-08T17:17:36;30.00;99.90
17619;DHT22;8928;51.678;6.074;2023-09-08T17:20:24;29.20;99.90
17619;DHT22;8928;51.678;6.074;2023-09-08T17:23:11;28.60;99.90
17619;DHT22;8928;51.678;6.074;2023-09-08T17:26:00;28.00;99.90
17619;DHT22;8928;51.678;6.074;2023-09-08T17:28:47;27.50;99.90
17619;DHT22;8928;51.678;6.074;2023-09-08T17:31:34;27.10;99.90
17619;DHT22;8928;51.678;6.074;2023-09-08T17:34:21;26.60;99.90
17619;DHT22;8928;51.678;6.074;2023-09-08T17:37:08;26.30;99.90
17619;DHT22;8928;51.678;6.074;2023-09-08T17:39:55;26.00;99.90
17619;DHT22;8928;51.678;6.074;2023-09-08T17:42:44;25.80;99.90
17619;DHT22;8928;51.678;6.074;2023-09-08T17:45:31;25.60;99.90
17619;DHT22;8928;51.678;6.074;2023-09-08T17:48:18;25.30;99.90
17619;DHT22;8928;51.678;6.074;2023-09-08T17:51:05;25.20;99.90
17619;DHT22;8928;51.678;6.074;2023-09-08T17:53:52;24.90;99.90
17619;DHT22;8928;51.678;6.074;2023-09-08T17:56:39;24.70;99.90
17619;DHT22;8928;51.678;6.074;2023-09-08T17:59:27;24.50;99.90